Time;durP1;ratioP1;P1;durP2;ratioP2;P2;SDS_P1;SDS_P2;PMS_P1;PMS_P2;Temp;Humidity;BMP_temperature;BMP_pressure;BME280_temperature;BME280_humidity;BME280_pressure;Samples;Min_cycle;Max_cycle;Signal;HPM_P1;HPM_P2
2022/10/04 00:01:45;;;;;;;;;;;18.70;63.20;;;;;;5088015;28;19944;-66
2022/10/04 00:04:14;;;;;;;;;;;18.70;63.20;;;;;;5088423;28;19920;-66
2022/10/04 00:06:44;;;;;;;;;;;18.70;63.20;;;;;;5088026;28;19920;-66
2022/10/04 00:09:13;;;;;;;;;;;18.70;63.20;;;;;;5089644;28;20010;-66
2022/10/04 00:11:42;;;;;;;;;;;18.70;63.20;;;;;;5089254;28;19921;-66
2022/10/04 00:14:13;;;;;;;;;;;18.70;63.20;;;;;;5088310;28;19931;-66
2022/10/04 00:16:39;;;;;;;;;;;18.70;63.20;;;;;;5087840;28;19920;-66
2022/10/04 00:28:01;;;;;;;;;;;18.70;63.10;;;;;;5089826;28;19913;-66
2022/10/04 00:30:35;;;;;;;;;;;18.60;63.00;;;;;;5088710;28;19920;-66
2022/10/04 00:33:01;;;;;;;;;;;18.70;63.20;;;;;;5088800;28;19964;-66
2022/10/04 00:43:46;;;;;;;;;;;18.60;63.10;;;;;;5089835;28;20358;-66
2022/10/04 00:46:14;;;;;;;;;;;18.60;63.00;;;;;;5088697;28;20440;-66
2022/10/04 00:48:43;;;;;;;;;;;18.60;63.10;;;;;;5088744;28;19999;-66
2022/10/04 00:51:27;;;;;;;;;;;18.60;63.00;;;;;;5088508;28;19927;-66
2022/10/04 00:56:53;;;;;;;;;;;18.60;63.10;;;;;;5089865;28;19934;-70
2022/10/04 01:02:01;;;;;;;;;;;18.60;63.10;;;;;;5128098;27;1850144;-66
2022/10/04 01:04:32;;;;;;;;;;;18.60;63.10;;;;;;5174276;27;19918;-66
2022/10/04 01:06:59;;;;;;;;;;;18.60;63.00;;;;;;5174714;27;19941;-66
2022/10/04 01:09:25;;;;;;;;;;;18.60;63.10;;;;;;5174220;27;19925;-66
2022/10/04 01:11:57;;;;;;;;;;;18.60;63.00;;;;;;5174164;27;19918;-66
2022/10/04 01:14:28;;;;;;;;;;;18.50;63.00;;;;;;5174178;27;20412;-66
2022/10/04 01:16:53;;;;;;;;;;;18.60;63.00;;;;;;5174398;27;19925;-66
2022/10/04 01:24:44;;;;;;;;;;;18.60;63.00;;;;;;5089960;28;19913;-66
2022/10/04 01:27:30;;;;;;;;;;;18.50;62.90;;;;;;5089827;28;19930;-66
2022/10/04 01:29:55;;;;;;;;;;;18.50;63.00;;;;;;5088665;28;19927;-66
2022/10/04 01:32:21;;;;;;;;;;;18.50;62.90;;;;;;5088441;28;19921;-66
2022/10/04 01:34:47;;;;;;;;;;;18.60;63.00;;;;;;5088708;28;19920;-66
2022/10/04 01:37:13;;;;;;;;;;;18.50;62.90;;;;;;5088697;28;19927;-69
2022/10/04 01:39:38;;;;;;;;;;;18.50;63.00;;;;;;5088384;28;20314;-66
2022/10/04 01:42:27;;;;;;;;;;;18.50;62.90;;;;;;5089635;28;19921;-66
2022/10/04 01:47:32;;;;;;;;;;;18.50;62.90;;;;;;5127587;27;1866189;-65
2022/10/04 01:50:01;;;;;;;;;;;18.50;62.90;;;;;;5174391;27;19966;-65
2022/10/04 01:52:45;;;;;;;;;;;18.50;63.00;;;;;;5174722;27;19946;-65
2022/10/04 01:57:55;;;;;;;;;;;18.50;62.90;;;;;;5089887;28;19912;-69
2022/10/04 02:00:23;;;;;;;;;;;18.50;62.90;;;;;;5089714;28;19928;-66
2022/10/04 02:02:52;;;;;;;;;;;18.50;62.90;;;;;;5088612;28;19920;-66
2022/10/04 02:05:23;;;;;;;;;;;18.50;62.90;;;;;;5088676;28;19921;-66
2022/10/04 02:07:49;;;;;;;;;;;18.50;62.90;;;;;;5088781;28;20010;-70
2022/10/04 02:10:17;;;;;;;;;;;18.50;63.00;;;;;;5088662;28;20031;-66
2022/10/04 02:12:44;;;;;;;;;;;18.50;62.90;;;;;;5088564;28;20368;-66
2022/10/04 02:15:11;;;;;;;;;;;18.50;62.90;;;;;;5088332;28;20042;-66
2022/10/04 02:17:38;;;;;;;;;;;18.50;62.90;;;;;;5089423;28;19931;-66
2022/10/04 02:20:08;;;;;;;;;;;18.50;62.90;;;;;;5088526;28;19932;-66
2022/10/04 02:22:34;;;;;;;;;;;18.40;62.90;;;;;;5088094;28;20400;-66
2022/10/04 02:25:01;;;;;;;;;;;18.40;62.80;;;;;;5088158;28;19920;-66
2022/10/04 02:27:28;;;;;;;;;;;18.40;62.80;;;;;;5088184;28;20365;-66
2022/10/04 02:30:10;;;;;;;;;;;18.40;62.80;;;;;;5089363;28;19921;-66
2022/10/04 02:33:09;;;;;;;;;;;18.40;62.90;;;;;;5088151;28;19921;-66
2022/10/04 02:35:26;;;;;;;;;;;18.40;62.80;;;;;;5087746;28;20439;-66
2022/10/04 02:37:54;;;;;;;;;;;18.40;62.80;;;;;;5087776;28;19920;-66
2022/10/04 02:40:22;;;;;;;;;;;18.40;62.80;;;;;;5089267;28;19931;-66
2022/10/04 02:42:53;;;;;;;;;;;18.40;62.80;;;;;;5088034;28;19920;-66
2022/10/04 02:45:23;;;;;;;;;;;18.40;62.80;;;;;;5089006;28;19920;-66
2022/10/04 02:47:52;;;;;;;;;;;18.40;62.80;;;;;;5087935;28;19920;-66
2022/10/04 02:50:27;;;;;;;;;;;18.40;62.80;;;;;;5088979;28;19920;-66
2022/10/04 02:52:57;;;;;;;;;;;18.40;62.80;;;;;;5088766;28;20388;-66
2022/10/04 02:55:27;;;;;;;;;;;18.40;62.70;;;;;;5088705;28;19927;-66
2022/10/04 02:57:52;;;;;;;;;;;18.40;62.70;;;;;;5087261;28;20099;-66
2022/10/04 03:00:19;;;;;;;;;;;18.30;62.70;;;;;;5087738;28;19920;-66
2022/10/04 03:03:05;;;;;;;;;;;18.30;62.70;;;;;;5088603;28;19920;-66
2022/10/04 03:05:31;;;;;;;;;;;18.30;62.70;;;;;;5104131;28;19973;-66
2022/10/04 03:07:57;;;;;;;;;;;18.30;62.70;;;;;;5081824;28;20450;-66
2022/10/04 03:10:23;;;;;;;;;;;18.30;62.70;;;;;;5073788;28;19921;-66
2022/10/04 03:12:50;;;;;;;;;;;18.30;62.70;;;;;;5073715;28;20015;-66
2022/10/04 03:15:15;;;;;;;;;;;18.30;62.70;;;;;;5075012;28;19963;-66
2022/10/04 03:17:42;;;;;;;;;;;18.40;62.70;;;;;;5074801;28;20411;-66
2022/10/04 03:20:10;;;;;;;;;;;18.30;62.70;;;;;;5073903;28;19920;-66
2022/10/04 03:22:35;;;;;;;;;;;18.30;62.70;;;;;;5074977;28;19921;-66
2022/10/04 03:25:01;;;;;;;;;;;18.30;62.70;;;;;;5074897;28;20437;-69
2022/10/04 03:27:30;;;;;;;;;;;18.30;62.60;;;;;;5074913;28;20011;-66
2022/10/04 03:29:58;;;;;;;;;;;18.30;62.60;;;;;;5074688;28;20288;-66
2022/10/04 03:32:24;;;;;;;;;;;18.30;62.70;;;;;;5074541;28;19930;-66
2022/10/04 03:34:58;;;;;;;;;;;18.30;62.60;;;;;;5074597;28;19927;-66
2022/10/04 03:37:24;;;;;;;;;;;18.30;62.70;;;;;;5074916;28;20335;-66
2022/10/04 03:39:51;;;;;;;;;;;18.30;62.60;;;;;;5074523;28;19927;-66
2022/10/04 03:42:21;;;;;;;;;;;18.20;62.60;;;;;;5074464;28;20372;-66
2022/10/04 03:44:49;;;;;;;;;;;18.30;62.60;;;;;;5073374;28;19920;-66
2022/10/04 03:47:20;;;;;;;;;;;18.30;62.60;;;;;;5074353;28;19921;-66
2022/10/04 03:49:46;;;;;;;;;;;18.30;62.60;;;;;;5073317;28;19943;-66
2022/10/04 03:52:18;;;;;;;;;;;18.20;62.50;;;;;;5074523;28;19920;-66
2022/10/04 03:54:44;;;;;;;;;;;18.20;62.60;;;;;;5074330;28;19967;-66
2022/10/04 03:57:11;;;;;;;;;;;18.20;62.50;;;;;;5072686;28;20017;-66
2022/10/04 03:59:36;;;;;;;;;;;18.20;62.50;;;;;;5074101;28;20356;-66
2022/10/04 04:02:14;;;;;;;;;;;18.20;62.50;;;;;;5073105;28;19967;-66
2022/10/04 04:04:45;;;;;;;;;;;18.20;62.50;;;;;;5074042;28;19924;-66
2022/10/04 04:07:31;;;;;;;;;;;18.20;62.50;;;;;;5074036;28;19924;-66
2022/10/04 04:12:42;;;;;;;;;;;18.20;62.60;;;;;;5089936;28;20317;-66
2022/10/04 04:15:09;;;;;;;;;;;18.20;62.50;;;;;;5088531;28;19966;-66
2022/10/04 04:17:37;;;;;;;;;;;18.20;62.50;;;;;;5088854;28;19970;-66
2022/10/04 04:20:06;;;;;;;;;;;18.20;62.50;;;;;;5088476;28;20397;-66
2022/10/04 04:22:32;;;;;;;;;;;18.20;62.50;;;;;;5088827;28;20357;-66
2022/10/04 04:24:59;;;;;;;;;;;18.20;62.50;;;;;;5088345;28;20007;-66
2022/10/04 04:27:25;;;;;;;;;;;18.20;62.50;;;;;;5088664;28;19974;-66
2022/10/04 04:29:51;;;;;;;;;;;18.20;62.40;;;;;;5089643;28;19924;-66
2022/10/04 04:32:19;;;;;;;;;;;18.20;62.40;;;;;;5089424;28;19931;-66
2022/10/04 04:34:51;;;;;;;;;;;18.10;62.40;;;;;;5071535;28;19921;-69
2022/10/04 04:37:18;;;;;;;;;;;18.20;62.40;;;;;;5088178;28;19928;-66
2022/10/04 04:39:47;;;;;;;;;;;18.20;62.40;;;;;;5089355;28;20318;-66
2022/10/04 04:45:03;;;;;;;;;;;18.10;62.40;;;;;;5110563;27;19912;-66
2022/10/04 04:50:14;;;;;;;;;;;18.10;62.20;;;;;;5089810;28;20368;-66
2022/10/04 04:52:41;;;;;;;;;;;18.10;62.20;;;;;;5088498;28;19927;-66
2022/10/04 04:55:14;;;;;;;;;;;18.10;62.20;;;;;;5088807;28;19972;-66
2022/10/04 04:57:40;;;;;;;;;;;18.10;63.00;;;;;;5088450;28;20016;-66
2022/10/04 05:00:06;;;;;;;;;;;18.10;62.20;;;;;;5088914;28;20003;-66
2022/10/04 05:02:34;;;;;;;;;;;18.10;62.20;;;;;;5088293;28;19946;-68
2022/10/04 05:05:19;;;;;;;;;;;18.10;62.20;;;;;;5088603;28;20033;-66
2022/10/04 05:07:45;;;;;;;;;;;18.10;62.20;;;;;;5088181;28;19921;-66
2022/10/04 05:10:18;;;;;;;;;;;18.10;62.20;;;;;;5088603;28;20367;-66
2022/10/04 05:12:44;;;;;;;;;;;18.10;62.10;;;;;;5088330;28;19927;-66
2022/10/04 05:15:10;;;;;;;;;;;18.10;62.20;;;;;;5089407;28;19920;-66
2022/10/04 05:17:35;;;;;;;;;;;18.10;62.10;;;;;;5089324;28;19920;-66
2022/10/04 05:20:01;;;;;;;;;;;18.10;62.10;;;;;;5088029;28;19921;-66
2022/10/04 05:22:27;;;;;;;;;;;18.10;62.10;;;;;;5089212;28;19920;-66
2022/10/04 05:24:57;;;;;;;;;;;18.10;62.10;;;;;;5088267;28;20352;-66
2022/10/04 05:27:29;;;;;;;;;;;18.10;62.10;;;;;;5087886;28;20355;-66
2022/10/04 05:30:14;;;;;;;;;;;18.10;62.10;;;;;;5085447;28;19932;-65
2022/10/04 05:33:00;;;;;;;;;;;18.10;62.20;;;;;;5086148;28;19970;-66
2022/10/04 05:35:27;;;;;;;;;;;18.10;63.20;;;;;;5086410;28;20415;-68
2022/10/04 05:37:57;;;;;;;;;;;18.20;63.20;;;;;;5087174;28;20364;-64
2022/10/04 05:40:28;;;;;;;;;;;18.20;63.00;;;;;;5086754;28;19921;-64
2022/10/04 05:42:56;;;;;;;;;;;18.30;62.70;;;;;;5085817;28;20050;-64
2022/10/04 05:45:25;;;;;;;;;;;18.40;62.50;;;;;;5071063;28;20391;-66
2022/10/04 05:47:52;;;;;;;;;;;18.50;62.30;;;;;;5078212;28;20384;-65
2022/10/04 05:50:20;;;;;;;;;;;18.60;62.20;;;;;;5083906;28;19924;-65
2022/10/04 05:52:47;;;;;;;;;;;18.70;62.00;;;;;;5085522;28;20279;-65
2022/10/04 05:58:17;;;;;;;;;;;18.80;61.70;;;;;;5086785;28;19923;-65
2022/10/04 06:03:33;;;;;;;;;;;18.80;61.40;;;;;;5088242;27;19916;-65
2022/10/04 06:06:15;;;;;;;;;;;18.90;61.20;;;;;;5070798;28;19928;-64
2022/10/04 06:14:23;;;;;;;;;;;18.90;60.90;;;;;;5082609;28;19917;-65
2022/10/04 06:19:51;;;;;;;;;;;19.00;60.80;;;;;;5088919;27;19923;-65
2022/10/04 06:22:19;;;;;;;;;;;19.00;60.90;;;;;;5075196;28;19921;-66
2022/10/04 06:24:49;;;;;;;;;;;19.00;60.80;;;;;;5078340;28;19934;-66
2022/10/04 06:27:34;;;;;;;;;;;19.00;60.80;;;;;;5095720;27;20002;-66
2022/10/04 06:30:05;;;;;;;;;;;19.00;60.80;;;;;;5094088;27;19924;-66
2022/10/04 06:40:55;;;;;;;;;;;19.00;60.50;;;;;;5066572;28;20323;-64
2022/10/04 06:51:39;;;;;;;;;;;19.00;60.80;;;;;;5057161;27;19917;-64
2022/10/04 06:57:05;;;;;;;;;;;19.10;60.90;;;;;;5065160;28;20315;-63
2022/10/04 07:02:16;;;;;;;;;;;19.10;60.70;;;;;;5053083;28;19917;-64
2022/10/04 07:04:53;;;;;;;;;;;19.20;60.80;;;;;;5065165;28;19956;-65
2022/10/04 07:07:25;;;;;;;;;;;19.20;61.10;;;;;;5057904;28;19924;-66
2022/10/04 07:09:55;;;;;;;;;;;19.20;61.00;;;;;;5056694;28;19932;-66
2022/10/04 07:12:21;;;;;;;;;;;19.20;60.90;;;;;;5062412;28;19921;-65
2022/10/04 07:14:50;;;;;;;;;;;19.20;60.70;;;;;;5054621;28;19931;-66
2022/10/04 07:17:18;;;;;;;;;;;19.20;61.00;;;;;;5057759;28;19955;-65
2022/10/04 07:19:46;;;;;;;;;;;19.20;61.20;;;;;;5056119;28;19929;-67
2022/10/04 07:22:16;;;;;;;;;;;19.30;61.40;;;;;;5052748;28;19935;-68
2022/10/04 07:25:02;;;;;;;;;;;19.40;61.60;;;;;;5050259;28;19928;-67
2022/10/04 07:27:31;;;;;;;;;;;19.40;61.60;;;;;;5050563;28;19924;-67
2022/10/04 07:29:58;;;;;;;;;;;19.40;61.50;;;;;;5052662;28;20393;-66
2022/10/04 07:32:26;;;;;;;;;;;19.40;61.20;;;;;;5052499;28;20056;-66
2022/10/04 07:35:11;;;;;;;;;;;19.40;60.90;;;;;;5053238;28;20440;-75
2022/10/04 07:37:57;;;;;;;;;;;19.40;61.10;;;;;;5049980;28;19936;-69
2022/10/04 07:40:26;;;;;;;;;;;19.40;61.50;;;;;;5060080;28;19924;-69
2022/10/04 07:42:58;;;;;;;;;;;19.40;61.90;;;;;;5059909;28;20297;-68
2022/10/04 07:45:26;;;;;;;;;;;19.40;61.90;;;;;;5062925;28;19936;-67
2022/10/04 07:48:01;;;;;;;;;;;19.50;61.90;;;;;;5073915;28;20011;-76
2022/10/04 07:50:31;;;;;;;;;;;19.50;62.00;;;;;;5045282;28;19921;-67
2022/10/04 07:58:26;;;;;;;;;;;19.60;62.20;;;;;;5075844;27;19927;-68
2022/10/04 08:00:55;;;;;;;;;;;19.70;62.10;;;;;;5075145;28;19928;-67
2022/10/04 08:09:07;;;;;;;;;;;19.70;61.90;;;;;;5065809;28;19917;-65
2022/10/04 08:14:34;;;;;;;;;;;19.70;62.10;;;;;;5099223;27;19925;-66
2022/10/04 08:17:20;;;;;;;;;;;19.70;62.30;;;;;;5086320;28;20026;-66
2022/10/04 08:19:50;;;;;;;;;;;19.80;62.50;;;;;;5093246;28;19928;-66
2022/10/04 08:25:00;;;;;;;;;;;19.80;62.50;;;;;;5071545;27;19930;-65
2022/10/04 08:30:21;;;;;;;;;;;19.80;62.40;;;;;;5041030;28;19921;-67
2022/10/04 08:32:53;;;;;;;;;;;19.80;62.30;;;;;;5030491;28;19936;-70
2022/10/04 08:35:35;;;;;;;;;;;19.80;62.00;;;;;;5036410;28;20011;-68
2022/10/04 08:52:02;;;;;;;;;;;19.80;61.90;;;;;;5076966;27;19992;-67
2022/10/04 09:00:12;;;;;;;;;;;19.80;62.20;;;;;;5075028;27;19927;-65
2022/10/04 09:02:57;;;;;;;;;;;19.80;62.30;;;;;;5036447;28;20024;-65
2022/10/04 09:05:43;;;;;;;;;;;19.80;62.30;;;;;;5033345;28;19924;-68
2022/10/04 09:08:29;;;;;;;;;;;19.80;62.30;;;;;;5035668;28;19931;-66
2022/10/04 09:11:15;;;;;;;;;;;19.80;62.80;;;;;;5039357;28;19954;-68
2022/10/04 09:14:00;;;;;;;;;;;19.80;62.80;;;;;;5031895;28;20004;-67
2022/10/04 09:16:46;;;;;;;;;;;19.90;62.50;;;;;;5025881;28;20012;-67
2022/10/04 09:24:55;;;;;;;;;;;19.90;63.00;;;;;;5073444;27;19925;-67
2022/10/04 09:27:35;;;;;;;;;;;19.80;62.60;;;;;;5049396;28;19928;-69
2022/10/04 09:33:00;;;;;;;;;;;19.80;62.70;;;;;;5064800;28;20513;-69
2022/10/04 09:40:59;;;;;;;;;;;19.90;62.30;;;;;;5065576;28;19923;-67
2022/10/04 09:54:48;;;;;;;;;;;19.80;61.70;;;;;;5058463;27;19925;-67
2022/10/04 09:57:26;;;;;;;;;;;19.70;62.10;;;;;;5061499;28;20410;-65
2022/10/04 10:00:13;;;;;;;;;;;19.80;62.30;;;;;;5066926;28;19932;-65
2022/10/04 10:05:27;;;;;;;;;;;19.80;61.80;;;;;;5057305;28;19920;-66
2022/10/04 10:13:49;;;;;;;;;;;19.80;62.20;;;;;;5054942;28;19982;-66
2022/10/04 10:16:37;;;;;;;;;;;19.90;62.50;;;;;;5050790;28;20392;-67
2022/10/04 10:24:31;;;;;;;;;;;20.00;63.00;;;;;;5091939;27;1862097;-68
2022/10/04 10:27:02;;;;;;;;;;;20.00;63.10;;;;;;5117412;27;20010;-69
2022/10/04 10:29:47;;;;;;;;;;;20.10;62.90;;;;;;5125486;27;19924;-69
2022/10/04 10:32:33;;;;;;;;;;;20.10;62.40;;;;;;5126114;27;19924;-71
2022/10/04 10:35:19;;;;;;;;;;;20.10;62.10;;;;;;5143221;27;19928;-70
2022/10/04 10:43:26;;;;;;;;;;;20.10;61.60;;;;;;5099011;27;1848732;-67
2022/10/04 10:51:19;;;;;;;;;;;20.10;61.30;;;;;;5077463;27;19924;-70
2022/10/04 10:54:04;;;;;;;;;;;20.10;61.20;;;;;;5071270;28;19924;-68
2022/10/04 10:56:50;;;;;;;;;;;20.10;61.20;;;;;;5072975;28;19929;-70
2022/10/04 10:59:36;;;;;;;;;;;20.10;61.10;;;;;;5074089;28;19974;-70
2022/10/04 11:02:13;;;;;;;;;;;20.10;61.00;;;;;;5106078;28;20353;-70
2022/10/04 11:04:44;;;;;;;;;;;20.10;61.20;;;;;;5075565;28;20562;-69
2022/10/04 11:10:22;;;;;;;;;;;20.10;61.30;;;;;;5084904;27;20395;-66
2022/10/04 11:13:05;;;;;;;;;;;20.00;61.40;;;;;;5072476;28;20431;-66
2022/10/04 11:15:37;;;;;;;;;;;20.10;61.50;;;;;;5089888;28;19921;-67
2022/10/04 11:26:18;;;;;;;;;;;20.10;61.70;;;;;;5075383;27;19925;-67
2022/10/04 11:28:51;;;;;;;;;;;20.10;61.80;;;;;;5102632;28;19929;-68
2022/10/04 11:34:11;;;;;;;;;;;20.10;61.80;;;;;;5073267;27;19953;-66
2022/10/04 11:42:40;;;;;;;;;;;20.00;60.90;;;;;;5088309;27;19924;-69
2022/10/04 11:45:20;;;;;;;;;;;20.10;60.90;;;;;;5073367;28;20047;-71
2022/10/04 11:48:10;;;;;;;;;;;20.10;60.80;;;;;;5087182;28;20058;-71
2022/10/04 11:53:24;;;;;;;;;;;20.10;61.30;;;;;;5051986;27;1863830;-69
2022/10/04 11:56:02;;;;;;;;;;;20.10;61.30;;;;;;5096296;28;19931;-66
2022/10/04 11:58:48;;;;;;;;;;;20.20;61.40;;;;;;5086465;28;20721;-65
2022/10/04 12:01:29;;;;;;;;;;;20.20;61.40;;;;;;5103530;27;19928;-65
2022/10/04 12:06:43;;;;;;;;;;;20.20;61.70;;;;;;5091516;27;1853358;-65
2022/10/04 12:12:39;;;;;;;;;;;20.30;62.00;;;;;;5078067;27;20523;-66
2022/10/04 12:15:13;;;;;;;;;;;20.30;62.20;;;;;;5035766;28;19943;-66
2022/10/04 12:23:19;;;;;;;;;;;20.50;62.50;;;;;;5081405;27;1849512;-65
2022/10/04 12:31:35;;;;;;;;;;;20.50;61.70;;;;;;5101944;27;1868071;-65
2022/10/04 12:34:13;;;;;;;;;;;20.50;61.60;;;;;;5143280;27;19934;-64
2022/10/04 12:42:23;;;;;;;;;;;20.50;61.10;;;;;;5057540;28;20462;-66
2022/10/04 12:47:49;;;;;;;;;;;20.60;60.50;;;;;;5074615;27;20810;-69
2022/10/04 12:50:25;;;;;;;;;;;20.60;60.50;;;;;;5074394;28;19960;-67
2022/10/04 12:55:55;;;;;;;;;;;20.50;60.00;;;;;;5072302;27;19926;-68
2022/10/04 13:01:03;;;;;;;;;;;20.50;59.80;;;;;;5075315;27;19926;-65
2022/10/04 13:17:12;;;;;;;;;;;20.60;61.30;;;;;;5068013;28;19921;-70
2022/10/04 13:19:49;;;;;;;;;;;20.60;61.70;;;;;;5061237;28;19932;-68
2022/10/04 13:27:42;;;;;;;;;;;20.60;61.30;;;;;;5070207;27;19943;-67
2022/10/04 13:30:27;;;;;;;;;;;20.70;61.10;;;;;;5073670;28;20403;-68
2022/10/04 13:33:13;;;;;;;;;;;20.60;60.60;;;;;;5058764;28;19928;-68
2022/10/04 13:35:48;;;;;;;;;;;20.60;60.80;;;;;;5057404;28;19924;-69
2022/10/04 13:41:16;;;;;;;;;;;20.60;60.80;;;;;;5102165;27;1864748;-67
2022/10/04 13:44:01;;;;;;;;;;;20.60;60.80;;;;;;5135059;27;19923;-68
2022/10/04 13:46:38;;;;;;;;;;;20.60;60.60;;;;;;5139684;27;20541;-69
2022/10/04 13:57:49;;;;;;;;;;;20.70;61.20;;;;;;5033657;28;19937;-69
2022/10/04 14:00:25;;;;;;;;;;;20.70;61.50;;;;;;5040566;28;19981;-69
2022/10/04 14:02:59;;;;;;;;;;;20.80;61.80;;;;;;5052725;28;19921;-67
2022/10/04 14:08:25;;;;;;;;;;;20.80;61.10;;;;;;5091053;27;19928;-67
2022/10/04 14:13:47;;;;;;;;;;;20.80;60.50;;;;;;5067218;28;19920;-68
2022/10/04 14:16:34;;;;;;;;;;;20.80;60.30;;;;;;5079284;28;20019;-65
2022/10/04 14:19:20;;;;;;;;;;;20.80;60.30;;;;;;5069209;28;19931;-64
2022/10/04 14:22:05;;;;;;;;;;;20.70;60.00;;;;;;5084963;28;19925;-64
2022/10/04 14:24:43;;;;;;;;;;;20.70;59.90;;;;;;5069284;28;19928;-66
2022/10/04 14:30:11;;;;;;;;;;;20.70;59.60;;;;;;5080644;28;19921;-67
2022/10/04 14:41:02;;;;;;;;;;;20.70;59.80;;;;;;5105395;27;19915;-66
2022/10/04 14:43:48;;;;;;;;;;;20.70;59.70;;;;;;5086191;28;19982;-66
2022/10/04 14:57:24;;;;;;;;;;;20.60;59.20;;;;;;5084019;28;20380;-68
2022/10/04 15:00:09;;;;;;;;;;;20.70;59.20;;;;;;5080999;28;19927;-71
2022/10/04 15:02:42;;;;;;;;;;;20.60;60.00;;;;;;5082840;28;19927;-71
2022/10/04 15:08:23;;;;;;;;;;;20.60;59.10;;;;;;5084946;28;20322;-69
2022/10/04 15:19:07;;;;;;;;;;;20.50;59.10;;;;;;5086018;28;19917;-68
2022/10/04 15:21:40;;;;;;;;;;;20.50;59.10;;;;;;5084377;28;20339;-67
2022/10/04 15:24:26;;;;;;;;;;;20.40;59.10;;;;;;5084218;28;19920;-68
2022/10/04 15:27:11;;;;;;;;;;;20.40;59.20;;;;;;5086399;28;20031;-68
2022/10/04 15:29:41;;;;;;;;;;;20.40;59.20;;;;;;5085815;28;20567;-68
2022/10/04 15:37:52;;;;;;;;;;;20.20;59.30;;;;;;5086625;28;19912;-68
2022/10/04 15:43:04;;;;;;;;;;;20.20;59.50;;;;;;5107489;27;19912;-68
2022/10/04 15:45:36;;;;;;;;;;;20.20;59.50;;;;;;5089725;28;19928;-68
2022/10/04 15:51:07;;;;;;;;;;;20.20;59.70;;;;;;5124350;27;1892279;-68
2022/10/04 15:53:52;;;;;;;;;;;20.20;59.80;;;;;;5171431;27;20278;-68
2022/10/04 16:04:41;;;;;;;;;;;20.20;59.90;;;;;;5125073;27;1858683;-68
2022/10/04 16:07:27;;;;;;;;;;;20.10;60.00;;;;;;5172453;27;19919;-68
2022/10/04 16:10:05;;;;;;;;;;;20.10;60.00;;;;;;5171854;27;19918;-68
2022/10/04 16:12:38;;;;;;;;;;;20.10;60.00;;;;;;5173506;27;19918;-69
2022/10/04 16:15:12;;;;;;;;;;;20.10;60.10;;;;;;5171847;27;20013;-68
2022/10/04 16:20:28;;;;;;;;;;;20.00;60.10;;;;;;5088014;28;19917;-68
2022/10/04 16:23:14;;;;;;;;;;;20.00;60.20;;;;;;5086444;28;20346;-68
2022/10/04 16:25:40;;;;;;;;;;;20.00;60.20;;;;;;5085978;28;19921;-68
2022/10/04 16:28:18;;;;;;;;;;;20.00;60.20;;;;;;5086820;28;19920;-68
2022/10/04 16:31:04;;;;;;;;;;;20.00;60.30;;;;;;5086495;28;20456;-70
2022/10/04 16:33:36;;;;;;;;;;;20.00;60.30;;;;;;5087009;28;19920;-68
2022/10/04 16:39:57;;;;;;;;;;;20.00;60.30;;;;;;5016591;27;4907547;-68
2022/10/04 16:41:34;;;;;;;;;;;20.00;60.40;;;;;;5172012;27;19919;-68
2022/10/04 16:44:00;;;;;;;;;;;20.00;60.40;;;;;;5172027;27;19919;-68
2022/10/04 16:46:34;;;;;;;;;;;19.90;60.40;;;;;;5190950;27;19918;-68
2022/10/04 16:49:02;;;;;;;;;;;19.90;60.50;;;;;;5173181;27;19933;-68
2022/10/04 16:54:30;;;;;;;;;;;19.90;60.50;;;;;;5108787;27;20383;-68
2022/10/04 17:02:23;;;;;;;;;;;19.80;60.60;;;;;;5088048;28;19944;-68
2022/10/04 17:10:19;;;;;;;;;;;19.80;60.70;;;;;;5088389;28;20388;-68
2022/10/04 17:15:39;;;;;;;;;;;19.80;60.70;;;;;;5087554;28;19913;-68
2022/10/04 17:20:49;;;;;;;;;;;19.70;60.80;;;;;;5108214;27;19913;-67
2022/10/04 17:23:36;;;;;;;;;;;19.80;60.80;;;;;;5089687;28;20391;-67
2022/10/04 17:31:27;;;;;;;;;;;19.70;60.90;;;;;;5108649;27;19945;-68
2022/10/04 17:34:12;;;;;;;;;;;19.70;60.90;;;;;;5108110;28;19966;-68
2022/10/04 17:36:40;;;;;;;;;;;19.70;61.00;;;;;;5106231;28;19973;-67
2022/10/04 17:44:34;;;;;;;;;;;19.70;61.00;;;;;;5087875;28;20291;-68
2022/10/04 17:55:15;;;;;;;;;;;19.60;61.00;;;;;;5085735;28;20499;-68
2022/10/04 17:57:46;;;;;;;;;;;19.60;61.00;;;;;;5086275;28;20376;-68
2022/10/04 18:00:15;;;;;;;;;;;19.60;61.10;;;;;;5086128;28;19959;-68
2022/10/04 18:03:01;;;;;;;;;;;19.60;61.10;;;;;;5085314;28;19966;-68
2022/10/04 18:05:30;;;;;;;;;;;19.60;61.10;;;;;;5102535;28;19925;-68
2022/10/04 18:07:58;;;;;;;;;;;19.60;61.10;;;;;;5085959;28;20017;-68
2022/10/04 18:10:33;;;;;;;;;;;19.60;61.10;;;;;;5086565;28;19967;-68
2022/10/04 18:13:19;;;;;;;;;;;19.60;61.10;;;;;;5086955;28;19920;-68
2022/10/04 18:16:04;;;;;;;;;;;19.60;61.10;;;;;;5086494;28;19924;-68
2022/10/04 18:18:37;;;;;;;;;;;19.60;61.20;;;;;;5086080;28;19920;-67
2022/10/04 18:21:06;;;;;;;;;;;19.60;61.10;;;;;;5085414;28;20007;-68
2022/10/04 18:23:34;;;;;;;;;;;19.60;61.20;;;;;;5086276;28;19921;-68
2022/10/04 18:26:17;;;;;;;;;;;19.60;61.10;;;;;;5087097;28;19970;-68
2022/10/04 18:28:43;;;;;;;;;;;19.60;61.10;;;;;;5086466;28;19924;-68
2022/10/04 18:31:18;;;;;;;;;;;19.60;61.20;;;;;;5087337;28;20007;-67
2022/10/04 18:33:48;;;;;;;;;;;19.50;61.10;;;;;;5087662;28;19925;-68
2022/10/04 18:36:19;;;;;;;;;;;19.50;61.10;;;;;;5085128;28;19920;-68
2022/10/04 18:38:56;;;;;;;;;;;19.50;61.10;;;;;;5087090;28;19967;-68
2022/10/04 18:41:50;;;;;;;;;;;19.50;61.20;;;;;;5086242;28;19921;-68
2022/10/04 18:44:13;;;;;;;;;;;19.50;61.20;;;;;;5084459;28;19920;-68
2022/10/04 18:46:40;;;;;;;;;;;19.50;61.20;;;;;;5085832;28;19943;-68
2022/10/04 18:49:14;;;;;;;;;;;19.50;61.20;;;;;;5087275;28;20008;-68
2022/10/04 18:51:49;;;;;;;;;;;19.50;61.20;;;;;;5085341;28;19924;-68
2022/10/04 19:02:48;;;;;;;;;;;19.60;61.30;;;;;;5171308;27;19929;-68
2022/10/04 19:13:31;;;;;;;;;;;19.40;61.20;;;;;;5088606;28;19918;-68
2022/10/04 19:16:10;;;;;;;;;;;19.50;61.20;;;;;;5087461;28;20279;-67
2022/10/04 19:21:41;;;;;;;;;;;19.50;61.30;;;;;;5087874;28;19912;-68
2022/10/04 19:26:58;;;;;;;;;;;19.50;61.30;;;;;;5108009;27;20463;-68
2022/10/04 19:32:25;;;;;;;;;;;19.40;61.20;;;;;;5088287;28;19923;-68
2022/10/04 19:34:58;;;;;;;;;;;19.50;61.30;;;;;;5088641;28;19986;-67
2022/10/04 19:37:28;;;;;;;;;;;19.40;61.30;;;;;;5103763;28;19964;-68
2022/10/04 19:45:34;;;;;;;;;;;19.40;61.30;;;;;;5107677;27;19912;-68
2022/10/04 19:48:04;;;;;;;;;;;19.40;61.30;;;;;;5089799;28;19931;-68
2022/10/04 19:50:34;;;;;;;;;;;19.40;61.30;;;;;;5090701;28;19920;-68
2022/10/04 19:53:06;;;;;;;;;;;19.40;61.30;;;;;;5090181;28;20391;-68
2022/10/04 19:55:42;;;;;;;;;;;19.40;61.30;;;;;;5090768;28;19920;-68
2022/10/04 20:00:55;;;;;;;;;;;19.40;61.30;;;;;;5107967;27;19941;-68
2022/10/04 20:03:20;;;;;;;;;;;19.40;61.30;;;;;;5089225;28;19919;-68
2022/10/04 20:05:49;;;;;;;;;;;19.40;61.30;;;;;;5089085;28;20128;-68
2022/10/04 20:08:16;;;;;;;;;;;19.40;61.30;;;;;;5107711;28;20291;-68
2022/10/04 20:10:42;;;;;;;;;;;19.40;61.40;;;;;;5090164;28;19949;-68
2022/10/04 20:13:23;;;;;;;;;;;19.40;61.40;;;;;;5107480;28;19931;-68
2022/10/04 20:15:50;;;;;;;;;;;19.40;61.40;;;;;;5089839;28;19919;-68
2022/10/04 20:21:11;;;;;;;;;;;19.40;61.40;;;;;;5125554;27;1855837;-67
2022/10/04 20:28:58;;;;;;;;;;;19.40;61.40;;;;;;5125799;27;1858725;-68
2022/10/04 20:34:22;;;;;;;;;;;19.40;61.40;;;;;;5125626;27;1879399;-68
2022/10/04 20:36:49;;;;;;;;;;;19.40;61.50;;;;;;5171603;27;19925;-68
2022/10/04 20:39:35;;;;;;;;;;;19.30;61.40;;;;;;5192136;27;19918;-68
2022/10/04 20:42:18;;;;;;;;;;;19.40;61.50;;;;;;5190195;27;20384;-68
2022/10/04 20:44:47;;;;;;;;;;;19.40;61.50;;;;;;5171264;27;19925;-68
2022/10/04 20:47:18;;;;;;;;;;;19.30;61.40;;;;;;5172317;27;19919;-68
2022/10/04 20:49:44;;;;;;;;;;;19.30;61.40;;;;;;5172603;27;19919;-68
2022/10/04 20:52:13;;;;;;;;;;;19.30;61.40;;;;;;5190994;27;19929;-68
2022/10/04 20:54:39;;;;;;;;;;;19.30;61.40;;;;;;5172650;27;19918;-68
2022/10/04 20:57:04;;;;;;;;;;;19.30;61.40;;;;;;5171886;27;19919;-67
2022/10/04 20:59:30;;;;;;;;;;;19.30;61.50;;;;;;5172737;27;20289;-68
2022/10/04 21:01:59;;;;;;;;;;;19.30;61.50;;;;;;5172018;27;20484;-68
2022/10/04 21:04:45;;;;;;;;;;;19.30;61.50;;;;;;5155180;27;19930;-68
2022/10/04 21:07:15;;;;;;;;;;;19.30;61.50;;;;;;5169545;27;19919;-68
2022/10/04 21:09:41;;;;;;;;;;;19.30;61.50;;;;;;5169849;27;19919;-69
2022/10/04 21:12:26;;;;;;;;;;;19.30;61.50;;;;;;5170330;27;19933;-70
2022/10/04 21:15:11;;;;;;;;;;;19.30;61.50;;;;;;5151725;27;19919;-70
2022/10/04 21:17:37;;;;;;;;;;;19.30;61.50;;;;;;5168345;27;19919;-72
2022/10/04 21:20:03;;;;;;;;;;;19.30;61.50;;;;;;5151648;27;19968;-70
2022/10/04 21:25:27;;;;;;;;;;;19.30;61.50;;;;;;5087035;28;19917;-68
2022/10/04 21:27:52;;;;;;;;;;;19.30;61.50;;;;;;5069547;28;19979;-68
2022/10/04 21:30:19;;;;;;;;;;;19.30;61.60;;;;;;5088236;28;20007;-68